sensor_id;sensor_type;location;lat;lon;timestamp;pressure;altitude;pressure_sealevel;temperature;humidity
58739;BME280;44512;53.046;18.604;2023-10-08T00:02:51;101425.46;;;13.55;68.66
58739;BME280;44512;53.046;18.604;2023-10-08T00:13:19;101421.07;;;13.54;68.43
58739;BME280;44512;53.046;18.604;2023-10-08T00:23:48;101442.59;;;13.49;68.21
58739;BME280;44512;53.046;18.604;2023-10-08T00:34:17;101442.15;;;13.46;67.82
58739;BME280;44512;53.046;18.604;2023-10-08T00:44:45;101432.49;;;13.43;67.46
58739;BME280;44512;53.046;18.604;2023-10-08T00:55:13;101476.84;;;13.44;66.27
58739;BME280;44512;53.046;18.604;2023-10-08T01:05:41;101487.69;;;13.37;63.46
58739;BME280;44512;53.046;18.604;2023-10-08T01:16:09;101481.39;;;13.30;60.09
58739;BME280;44512;53.046;18.604;2023-10-08T01:26:38;101494.95;;;13.23;58.20
58739;BME280;44512;53.046;18.604;2023-10-08T01:37:06;101493.18;;;13.16;57.10
58739;BME280;44512;53.046;18.604;2023-10-08T01:47:34;101532.66;;;13.12;56.11
58739;BME280;44512;53.046;18.604;2023-10-08T01:58:03;101534.70;;;13.03;55.33
58739;BME280;44512;53.046;18.604;2023-10-08T02:08:31;101563.88;;;12.94;54.98
58739;BME280;44512;53.046;18.604;2023-10-08T02:19:00;101544.60;;;12.89;54.56
58739;BME280;44512;53.046;18.604;2023-10-08T02:29:31;101577.99;;;12.83;53.99
58739;BME280;44512;53.046;18.604;2023-10-08T02:39:56;101599.21;;;12.73;53.69
58739;BME280;44512;53.046;18.604;2023-10-08T02:50:25;101609.62;;;12.69;52.89
58739;BME280;44512;53.046;18.604;2023-10-08T03:00:53;101630.80;;;12.59;52.58
58739;BME280;44512;53.046;18.604;2023-10-08T03:11:21;101650.13;;;12.49;52.34
58739;BME280;44512;53.046;18.604;2023-10-08T03:21:50;101666.53;;;12.41;51.43
58739;BME280;44512;53.046;18.604;2023-10-08T03:32:18;101694.06;;;12.23;50.90
58739;BME280;44512;53.046;18.604;2023-10-08T03:42:46;101707.54;;;12.17;49.70
58739;BME280;44512;53.046;18.604;2023-10-08T03:53:15;101721.94;;;12.03;48.46
58739;BME280;44512;53.046;18.604;2023-10-08T04:03:43;101748.91;;;11.81;47.67
58739;BME280;44512;53.046;18.604;2023-10-08T04:14:11;101750.14;;;11.79;47.47
58739;BME280;44512;53.046;18.604;2023-10-08T04:24:40;101782.45;;;11.65;47.34
58739;BME280;44512;53.046;18.604;2023-10-08T04:35:08;101781.02;;;11.55;47.41
58739;BME280;44512;53.046;18.604;2023-10-08T04:45:37;101783.61;;;11.48;47.67
58739;BME280;44512;53.046;18.604;2023-10-08T04:56:07;101784.18;;;11.35;47.73
58739;BME280;44512;53.046;18.604;2023-10-08T05:06:34;101806.63;;;11.21;47.77
58739;BME280;44512;53.046;18.604;2023-10-08T05:17:03;101824.82;;;11.12;47.86
58739;BME280;44512;53.046;18.604;2023-10-08T05:27:29;101853.15;;;11.02;48.13
58739;BME280;44512;53.046;18.604;2023-10-08T05:37:58;101874.18;;;10.91;48.28
58739;BME280;44512;53.046;18.604;2023-10-08T05:48:26;101902.30;;;10.82;48.50
58739;BME280;44512;53.046;18.604;2023-10-08T05:58:54;101929.91;;;10.69;48.49
58739;BME280;44512;53.046;18.604;2023-10-08T06:09:23;101934.51;;;10.61;48.29
58739;BME280;44512;53.046;18.604;2023-10-08T06:19:50;101949.07;;;10.60;48.09
58739;BME280;44512;53.046;18.604;2023-10-08T06:30:19;101962.61;;;10.60;47.76
58739;BME280;44512;53.046;18.604;2023-10-08T06:40:47;101987.63;;;10.62;47.72
58739;BME280;44512;53.046;18.604;2023-10-08T06:51:16;102007.26;;;10.64;47.73
58739;BME280;44512;53.046;18.604;2023-10-08T07:01:44;102032.66;;;10.71;47.29
58739;BME280;44512;53.046;18.604;2023-10-08T07:12:12;102047.20;;;10.78;46.88
58739;BME280;44512;53.046;18.604;2023-10-08T07:22:40;102066.17;;;10.86;46.47
58739;BME280;44512;53.046;18.604;2023-10-08T07:33:08;102069.22;;;10.91;45.97
58739;BME280;44512;53.046;18.604;2023-10-08T07:43:37;102083.10;;;10.97;45.75
58739;BME280;44512;53.046;18.604;2023-10-08T07:54:05;102097.83;;;11.02;45.30
58739;BME280;44512;53.046;18.604;2023-10-08T08:04:34;102091.91;;;11.07;44.81
58739;BME280;44512;53.046;18.604;2023-10-08T08:15:02;102103.08;;;11.12;43.80
58739;BME280;44512;53.046;18.604;2023-10-08T08:25:30;102113.55;;;11.15;42.86
58739;BME280;44512;53.046;18.604;2023-10-08T08:35:59;102128.47;;;11.19;43.01
58739;BME280;44512;53.046;18.604;2023-10-08T08:46:31;102133.89;;;11.27;42.29
58739;BME280;44512;53.046;18.604;2023-10-08T08:56:55;102160.65;;;11.30;41.84
58739;BME280;44512;53.046;18.604;2023-10-08T09:07:24;102160.98;;;11.35;41.07
58739;BME280;44512;53.046;18.604;2023-10-08T09:17:55;102174.69;;;11.42;40.55
58739;BME280;44512;53.046;18.604;2023-10-08T09:28:19;102181.48;;;11.46;40.05
58739;BME280;44512;53.046;18.604;2023-10-08T09:38:48;102192.83;;;11.50;40.23
58739;BME280;44512;53.046;18.604;2023-10-08T09:49:17;102186.20;;;11.60;40.00
58739;BME280;44512;53.046;18.604;2023-10-08T09:59:46;102182.29;;;11.63;39.17
58739;BME280;44512;53.046;18.604;2023-10-08T10:20:45;102224.66;;;11.80;37.79
58739;BME280;44512;53.046;18.604;2023-10-08T10:41:38;102215.16;;;11.92;37.15
58739;BME280;44512;53.046;18.604;2023-10-08T10:57:26;102211.09;;;12.05;37.92
58739;BME280;44512;53.046;18.604;2023-10-08T11:07:57;102198.16;;;12.15;37.15
58739;BME280;44512;53.046;18.604;2023-10-08T11:18:23;102220.67;;;12.23;36.36
58739;BME280;44512;53.046;18.604;2023-10-08T11:28:49;102222.22;;;12.26;35.23
58739;BME280;44512;53.046;18.604;2023-10-08T11:39:17;102229.14;;;12.29;33.19
58739;BME280;44512;53.046;18.604;2023-10-08T11:49:45;102214.02;;;12.34;32.71
58739;BME280;44512;53.046;18.604;2023-10-08T12:00:15;102235.03;;;12.40;32.51
58739;BME280;44512;53.046;18.604;2023-10-08T12:10:45;102243.50;;;12.45;32.46
58739;BME280;44512;53.046;18.604;2023-10-08T12:21:10;102247.41;;;12.51;32.08
58739;BME280;44512;53.046;18.604;2023-10-08T12:31:39;102251.29;;;12.57;31.94
58739;BME280;44512;53.046;18.604;2023-10-08T12:42:07;102276.38;;;12.67;31.91
58739;BME280;44512;53.046;18.604;2023-10-08T12:52:35;102262.39;;;12.78;31.29
58739;BME280;44512;53.046;18.604;2023-10-08T13:03:04;102271.16;;;12.88;30.32
58739;BME280;44512;53.046;18.604;2023-10-08T13:13:32;102247.98;;;13.00;30.05
58739;BME280;44512;53.046;18.604;2023-10-08T13:24:00;102298.37;;;13.11;29.21
58739;BME280;44512;53.046;18.604;2023-10-08T13:34:28;102280.15;;;13.20;29.02
58739;BME280;44512;53.046;18.604;2023-10-08T13:44:56;102282.13;;;13.34;29.54
58739;BME280;44512;53.046;18.604;2023-10-08T13:55:24;102296.64;;;13.49;29.19
58739;BME280;44512;53.046;18.604;2023-10-08T14:05:53;102288.34;;;13.66;29.29
58739;BME280;44512;53.046;18.604;2023-10-08T14:16:21;102308.28;;;13.81;29.24
58739;BME280;44512;53.046;18.604;2023-10-08T14:26:49;102309.16;;;13.96;28.74
58739;BME280;44512;53.046;18.604;2023-10-08T14:37:18;102313.12;;;14.08;28.17
58739;BME280;44512;53.046;18.604;2023-10-08T14:47:46;102309.95;;;14.20;27.98
58739;BME280;44512;53.046;18.604;2023-10-08T14:58:14;102339.45;;;14.31;27.98
58739;BME280;44512;53.046;18.604;2023-10-08T15:08:42;102359.20;;;14.33;28.10
58739;BME280;44512;53.046;18.604;2023-10-08T15:19:10;102358.67;;;14.82;27.78
58739;BME280;44512;53.046;18.604;2023-10-08T15:29:39;102378.55;;;14.38;28.56
58739;BME280;44512;53.046;18.604;2023-10-08T15:40:08;102395.16;;;14.05;29.11
58739;BME280;44512;53.046;18.604;2023-10-08T15:50:35;102416.47;;;13.79;29.79
58739;BME280;44512;53.046;18.604;2023-10-08T16:01:03;102415.95;;;13.52;30.31
58739;BME280;44512;53.046;18.604;2023-10-08T16:11:32;102426.41;;;13.33;30.58
58739;BME280;44512;53.046;18.604;2023-10-08T16:22:00;102439.75;;;13.11;30.89
58739;BME280;44512;53.046;18.604;2023-10-08T16:32:28;102448.84;;;12.87;31.31
58739;BME280;44512;53.046;18.604;2023-10-08T16:42:57;102465.84;;;12.73;31.59
58739;BME280;44512;53.046;18.604;2023-10-08T16:53:25;102474.16;;;12.55;31.97
58739;BME280;44512;53.046;18.604;2023-10-08T17:03:54;102484.86;;;12.40;32.37
58739;BME280;44512;53.046;18.604;2023-10-08T17:14:22;102497.44;;;12.25;32.83
58739;BME280;44512;53.046;18.604;2023-10-08T17:24:51;102499.26;;;12.08;33.30
58739;BME280;44512;53.046;18.604;2023-10-08T17:35:19;102504.48;;;11.93;34.13
58739;BME280;44512;53.046;18.604;2023-10-08T17:45:47;102496.97;;;11.79;34.24
58739;BME280;44512;53.046;18.604;2023-10-08T17:56:16;102512.55;;;11.69;34.72
58739;BME280;44512;53.046;18.604;2023-10-08T18:06:44;102507.38;;;11.50;35.15
58739;BME280;44512;53.046;18.604;2023-10-08T18:17:12;102528.65;;;11.36;35.49
58739;BME280;44512;53.046;18.604;2023-10-08T18:27:41;102520.13;;;11.23;36.23
58739;BME280;44512;53.046;18.604;2023-10-08T18:38:09;102528.37;;;11.13;36.58
58739;BME280;44512;53.046;18.604;2023-10-08T18:48:37;102509.68;;;11.02;37.00
58739;BME280;44512;53.046;18.604;2023-10-08T18:59:06;102515.84;;;10.86;37.43
58739;BME280;44512;53.046;18.604;2023-10-08T19:09:34;102527.61;;;10.77;37.83
58739;BME280;44512;53.046;18.604;2023-10-08T19:20:03;102530.51;;;10.58;38.13
58739;BME280;44512;53.046;18.604;2023-10-08T19:30:31;102525.96;;;10.40;38.68
58739;BME280;44512;53.046;18.604;2023-10-08T19:40:59;102532.01;;;10.34;39.10
58739;BME280;44512;53.046;18.604;2023-10-08T19:51:28;102524.96;;;10.24;39.58
58739;BME280;44512;53.046;18.604;2023-10-08T20:01:56;102530.03;;;10.09;40.27
58739;BME280;44512;53.046;18.604;2023-10-08T20:12:25;102550.43;;;10.03;40.79
58739;BME280;44512;53.046;18.604;2023-10-08T20:22:55;102546.94;;;9.93;41.12
58739;BME280;44512;53.046;18.604;2023-10-08T20:33:21;102561.96;;;9.78;41.36
58739;BME280;44512;53.046;18.604;2023-10-08T20:43:50;102559.51;;;9.57;41.96
58739;BME280;44512;53.046;18.604;2023-10-08T20:54:18;102561.40;;;9.47;42.32
58739;BME280;44512;53.046;18.604;2023-10-08T21:04:47;102556.88;;;9.37;42.74
58739;BME280;44512;53.046;18.604;2023-10-08T21:15:16;102549.96;;;9.25;43.16
58739;BME280;44512;53.046;18.604;2023-10-08T21:25:43;102554.82;;;9.12;43.67
58739;BME280;44512;53.046;18.604;2023-10-08T21:36:12;102551.87;;;9.05;43.98
58739;BME280;44512;53.046;18.604;2023-10-08T21:46:40;102540.92;;;8.97;44.51
58739;BME280;44512;53.046;18.604;2023-10-08T21:57:09;102537.98;;;8.81;45.03
58739;BME280;44512;53.046;18.604;2023-10-08T22:07:37;102533.02;;;8.67;45.34
58739;BME280;44512;53.046;18.604;2023-10-08T22:18:05;102519.25;;;8.60;45.47
58739;BME280;44512;53.046;18.604;2023-10-08T22:28:34;102511.85;;;8.52;45.80
58739;BME280;44512;53.046;18.604;2023-10-08T22:39:02;102526.34;;;8.42;46.11
58739;BME280;44512;53.046;18.604;2023-10-08T22:49:31;102521.91;;;8.21;46.67
58739;BME280;44512;53.046;18.604;2023-10-08T22:59:59;102477.89;;;8.11;47.12
58739;BME280;44512;53.046;18.604;2023-10-08T23:10:28;102481.16;;;8.05;47.41
58739;BME280;44512;53.046;18.604;2023-10-08T23:20:59;102466.26;;;8.01;47.65
58739;BME280;44512;53.046;18.604;2023-10-08T23:31:24;102445.40;;;7.93;47.90
58739;BME280;44512;53.046;18.604;2023-10-08T23:41:53;102435.03;;;7.89;48.25
58739;BME280;44512;53.046;18.604;2023-10-08T23:52:21;102431.64;;;7.87;48.36
